createdAt,value
2022-08-25T00:00:05.571Z,99817.34
2022-08-25T00:02:32.444Z,99817.56
2022-08-25T00:05:01.056Z,99820.34
2022-08-25T00:07:29.842Z,99822.91
2022-08-25T00:09:56.779Z,99821.41
2022-08-25T00:12:23.781Z,99822.34
2022-08-25T00:14:50.671Z,99817.34
2022-08-25T00:17:17.693Z,99822.50
2022-08-25T00:19:44.579Z,99822.56
2022-08-25T00:22:11.532Z,99817.56
2022-08-25T00:24:38.521Z,99815.06
2022-08-25T00:27:06.418Z,99823.91
2022-08-25T00:29:33.896Z,99823.22
2022-08-25T00:32:01.094Z,99818.97
2022-08-25T00:34:36.879Z,99813.28
2022-08-25T00:37:09.237Z,99816.09
2022-08-25T00:39:38.150Z,99826.44
2022-08-25T00:42:15.871Z,99827.34
2022-08-25T00:44:43.869Z,99821.50
2022-08-25T00:47:11.030Z,99822.41
2022-08-25T00:49:47.729Z,99828.44
2022-08-25T00:52:29.347Z,99824.25
2022-08-25T00:55:07.690Z,99823.38
2022-08-25T00:57:42.748Z,99830.16
2022-08-25T01:00:22.415Z,99825.94
2022-08-25T01:02:50.596Z,99825.97
2022-08-25T01:05:19.381Z,99825.16
2022-08-25T01:07:46.917Z,99826.91
2022-08-25T01:10:14.347Z,99821.78
2022-08-25T01:12:41.772Z,99821.78
2022-08-25T01:15:12.331Z,99816.72
2022-08-25T01:17:54.176Z,99818.47
2022-08-25T01:20:29.347Z,99818.56
2022-08-25T01:22:58.425Z,99815.13
2022-08-25T01:25:39.659Z,99819.59
2022-08-25T01:28:06.887Z,99816.44
2022-08-25T01:30:34.973Z,99820.03
2022-08-25T01:33:08.544Z,99822.00
2022-08-25T01:35:37.044Z,99818.97
2022-08-25T01:38:06.499Z,99825.19
2022-08-25T01:40:36.196Z,99822.25
2022-08-25T01:43:12.092Z,99829.47
2022-08-25T01:45:44.745Z,99821.38
2022-08-25T01:48:14.682Z,99827.69
2022-08-25T01:50:43.987Z,99823.00
2022-08-25T01:53:23.586Z,99825.84
2022-08-25T01:55:54.138Z,99820.16
2022-08-25T01:58:26.114Z,99823.03
2022-08-25T02:00:57.074Z,99832.00
2022-08-25T02:03:25.572Z,99833.88
2022-08-25T02:05:54.840Z,99841.81
2022-08-25T02:08:23.165Z,99838.63
2022-08-25T02:10:53.228Z,99831.84
2022-08-25T02:13:20.749Z,99832.91
2022-08-25T02:15:57.150Z,99840.72
2022-08-25T02:18:24.948Z,99834.03
2022-08-25T02:20:52.044Z,99830.66
2022-08-25T02:23:18.939Z,99826.53
2022-08-25T02:25:45.783Z,99829.13
2022-08-25T02:28:12.674Z,99818.13
2022-08-25T02:30:42.659Z,99818.25
2022-08-25T02:33:10.444Z,99819.22
2022-08-25T02:35:38.417Z,99819.38
2022-08-25T02:38:06.283Z,99813.38
2022-08-25T02:40:33.908Z,99813.53
2022-08-25T02:43:00.797Z,99809.34
2022-08-25T02:45:27.980Z,99807.72
2022-08-25T02:47:54.847Z,99811.38
2022-08-25T02:50:21.600Z,99807.03
2022-08-25T02:52:50.516Z,99797.75
2022-08-25T02:55:18.138Z,99796.25
2022-08-25T02:57:45.023Z,99798.06
2022-08-25T03:00:15.140Z,99798.06
2022-08-25T03:02:43.478Z,99793.88
2022-08-25T03:05:12.432Z,99793.03
2022-08-25T03:07:39.807Z,99797.44
2022-08-25T03:10:12.470Z,99793.03
2022-08-25T03:12:41.613Z,99789.63
2022-08-25T03:15:16.667Z,99783.56
2022-08-25T03:17:46.437Z,99786.19
2022-08-25T03:20:13.937Z,99783.63
2022-08-25T03:22:41.244Z,99788.78
2022-08-25T03:25:27.290Z,99778.47
2022-08-25T03:27:54.181Z,99780.38
2022-08-25T03:30:21.446Z,99779.50
2022-08-25T03:32:48.713Z,99781.34
2022-08-25T03:35:15.610Z,99780.47
2022-08-25T03:37:42.544Z,99769.50
2022-08-25T03:40:16.278Z,99764.34
2022-08-25T03:42:45.729Z,99754.22
2022-08-25T03:45:16.422Z,99760.06
2022-08-25T03:47:49.844Z,99755.97
2022-08-25T03:50:19.078Z,99761.13
2022-08-25T03:52:54.852Z,99753.47
2022-08-25T03:55:24.750Z,99760.34
2022-08-25T03:57:54.245Z,99760.44
2022-08-25T04:00:23.339Z,99763.81
2022-08-25T04:02:50.245Z,99759.59
2022-08-25T04:05:17.276Z,99753.59
2022-08-25T04:07:44.206Z,99757.75
2022-08-25T04:10:12.491Z,99752.53
2022-08-25T04:12:39.630Z,99749.22
2022-08-25T04:15:08.929Z,99754.28
2022-08-25T04:17:39.971Z,99754.44
2022-08-25T04:20:10.909Z,99754.44
2022-08-25T04:22:41.068Z,99765.66
2022-08-25T04:25:12.769Z,99759.59
2022-08-25T04:27:39.762Z,99764.78
2022-08-25T04:30:07.825Z,99763.16
2022-08-25T04:32:37.196Z,99759.72
2022-08-25T04:35:05.385Z,99756.38
2022-08-25T04:37:33.316Z,99756.38
2022-08-25T04:40:00.336Z,99758.19
2022-08-25T04:42:27.550Z,99754.78
2022-08-25T04:44:54.608Z,99744.50
2022-08-25T04:47:22.449Z,99737.69
2022-08-25T04:49:49.688Z,99742.94
2022-08-25T04:52:16.730Z,99747.34
2022-08-25T04:54:43.913Z,99747.44
2022-08-25T04:57:11.272Z,99747.63
2022-08-25T04:59:38.419Z,99740.69
2022-08-25T05:02:06.645Z,99732.00
2022-08-25T05:04:36.617Z,99739.75
2022-08-25T05:07:05.352Z,99730.22
2022-08-25T05:09:32.977Z,99724.97
2022-08-25T05:12:02.349Z,99729.09
2022-08-25T05:14:31.244Z,99731.63
2022-08-25T05:16:59.409Z,99728.78
2022-08-25T05:19:30.501Z,99723.50
2022-08-25T05:21:57.674Z,99719.88
2022-08-25T05:24:26.989Z,99728.00
2022-08-25T05:26:54.265Z,99725.22
2022-08-25T05:29:21.493Z,99729.06
2022-08-25T05:31:50.781Z,99725.25
2022-08-25T05:34:19.864Z,99726.22
2022-08-25T05:36:47.911Z,99725.66
2022-08-25T05:39:14.987Z,99724.22
2022-08-25T05:41:41.894Z,99732.75
2022-08-25T05:44:08.809Z,99736.06
2022-08-25T05:46:36.679Z,99728.25
2022-08-25T05:49:03.577Z,99723.06
2022-08-25T05:51:30.484Z,99722.78
2022-08-25T05:53:57.294Z,99720.03
2022-08-25T05:56:24.153Z,99725.94
2022-08-25T05:58:51.293Z,99729.94
2022-08-25T06:01:45.206Z,99725.50
2022-08-25T06:04:14.272Z,99723.47
2022-08-25T06:06:41.750Z,99721.59
2022-08-25T06:09:10.191Z,99729.63
2022-08-25T06:11:40.231Z,99723.38
2022-08-25T06:14:09.534Z,99726.13
2022-08-25T06:16:38.769Z,99729.06
2022-08-25T06:19:10.971Z,99721.56
2022-08-25T06:21:39.624Z,99722.72
2022-08-25T06:24:13.291Z,99729.34
2022-08-25T06:26:42.193Z,99726.16
2022-08-25T06:29:09.055Z,99731.09
2022-08-25T06:31:36.591Z,99733.41
2022-08-25T06:34:03.594Z,99734.16
2022-08-25T06:36:30.430Z,99747.09
2022-08-25T06:38:57.688Z,99736.81
2022-08-25T06:41:25.595Z,99735.91
2022-08-25T06:44:05.776Z,99737.13
2022-08-25T06:46:36.196Z,99738.72
2022-08-25T06:49:06.533Z,99740.72
2022-08-25T06:51:35.892Z,99740.97
2022-08-25T06:54:04.956Z,99737.81
2022-08-25T06:56:32.494Z,99733.44
2022-08-25T06:59:02.295Z,99736.22
2022-08-25T07:01:31.833Z,99736.41
2022-08-25T07:04:01.616Z,99736.13
2022-08-25T07:06:32.459Z,99734.00
2022-08-25T07:08:59.751Z,99741.44
2022-08-25T07:11:26.993Z,99735.72
2022-08-25T07:13:53.899Z,99731.75
2022-08-25T07:16:21.878Z,99730.97
2022-08-25T07:18:49.495Z,99723.63
2022-08-25T07:21:18.784Z,99722.06
2022-08-25T07:23:47.596Z,99720.59
2022-08-25T07:26:39.287Z,99726.03
2022-08-25T07:29:42.240Z,99729.25
2022-08-25T07:32:09.545Z,99727.88
2022-08-25T07:34:56.244Z,99735.88
2022-08-25T07:37:47.858Z,99729.09
2022-08-25T07:40:17.607Z,99723.06
2022-08-25T07:42:45.614Z,99722.50
2022-08-25T07:45:13.768Z,99727.66
2022-08-25T07:47:42.678Z,99727.47
2022-08-25T07:50:12.980Z,99725.44
2022-08-25T07:52:41.808Z,99733.97
2022-08-25T07:55:11.153Z,99727.97
2022-08-25T07:57:41.495Z,99719.00
2022-08-25T08:00:11.122Z,99716.19
2022-08-25T08:02:39.858Z,99724.59
2022-08-25T08:05:08.991Z,99725.09
2022-08-25T08:07:43.411Z,99727.16
2022-08-25T08:13:03.169Z,99711.97
2022-08-25T08:15:30.516Z,99718.41
2022-08-25T08:17:59.479Z,99720.09
2022-08-25T08:20:27.177Z,99716.00
2022-08-25T08:22:55.894Z,99709.28
2022-08-25T08:25:27.388Z,99707.31
2022-08-25T08:27:55.898Z,99705.66
2022-08-25T08:30:26.052Z,99713.41
2022-08-25T08:33:11.584Z,99712.56
2022-08-25T08:35:41.086Z,99710.03
2022-08-25T08:38:14.454Z,99702.78
2022-08-25T08:41:23.309Z,99688.03
2022-08-25T08:47:17.019Z,99690.63
2022-08-25T08:50:24.921Z,99700.50
2022-08-25T08:53:34.122Z,99683.78
2022-08-25T08:56:08.916Z,99691.59
2022-08-25T08:58:51.492Z,99687.69
2022-08-25T09:01:31.774Z,99681.91
2022-08-25T09:04:32.410Z,99682.22
2022-08-25T09:07:07.661Z,99682.53
2022-08-25T09:09:41.292Z,99679.53
2022-08-25T09:12:26.338Z,99672.19
2022-08-25T09:16:09.694Z,99684.28
2022-08-25T09:19:24.027Z,99682.88
2022-08-25T09:22:44.034Z,99684.41
2022-08-25T09:28:43.051Z,99678.44
2022-08-25T09:31:41.054Z,99677.13
2022-08-25T09:34:17.454Z,99684.31
2022-08-25T09:36:45.846Z,99672.56
2022-08-25T09:39:14.789Z,99681.63
2022-08-25T09:41:56.137Z,99681.41
2022-08-25T09:44:41.375Z,99671.28
2022-08-25T09:47:18.636Z,99672.50
2022-08-25T09:49:57.291Z,99674.59
2022-08-25T09:52:41.414Z,99658.25
2022-08-25T09:55:08.534Z,99670.63
2022-08-25T09:57:43.050Z,99659.56
2022-08-25T10:00:30.727Z,99662.19
2022-08-25T10:03:22.739Z,99659.59
2022-08-25T10:06:12.987Z,99654.75
2022-08-25T10:09:00.810Z,99649.88
2022-08-25T10:11:48.314Z,99644.50
2022-08-25T10:14:34.980Z,99650.13
2022-08-25T10:17:27.845Z,99643.41
2022-08-25T10:20:22.069Z,99639.13
2022-08-25T10:22:50.727Z,99644.94
2022-08-25T10:25:31.053Z,99637.78
2022-08-25T10:28:34.247Z,99638.25
2022-08-25T10:31:44.497Z,99632.88
2022-08-25T10:34:51.810Z,99630.53
2022-08-25T10:37:52.242Z,99619.94
2022-08-25T10:40:37.263Z,99615.75
2022-08-25T10:43:25.787Z,99610.75
2022-08-25T10:46:18.782Z,99614.22
2022-08-25T10:48:58.692Z,99602.25
2022-08-25T10:51:51.063Z,99601.44
2022-08-25T10:54:27.295Z,99600.72
2022-08-25T10:57:22.342Z,99594.66
2022-08-25T11:00:14.347Z,99582.88
2022-08-25T11:03:17.207Z,99593.50
2022-08-25T11:06:20.819Z,99582.91
2022-08-25T11:09:05.288Z,99577.97
2022-08-25T11:12:03.118Z,99571.22
2022-08-25T11:14:49.136Z,99574.03
2022-08-25T11:17:50.282Z,99566.28
2022-08-25T11:20:26.916Z,99566.66
2022-08-25T11:23:28.239Z,99557.38
2022-08-25T11:26:09.517Z,99561.47
2022-08-25T11:28:54.309Z,99552.19
2022-08-25T11:31:23.310Z,99559.34
2022-08-25T11:33:52.330Z,99555.09
2022-08-25T11:36:37.777Z,99546.94
2022-08-25T11:39:36.417Z,99541.97
2022-08-25T11:42:43.259Z,99545.38
2022-08-25T11:45:54.801Z,99542.34
2022-08-25T11:48:44.242Z,99535.41
2022-08-25T11:51:33.815Z,99529.91
2022-08-25T11:54:32.539Z,99538.00
2022-08-25T11:57:07.237Z,99516.91
2022-08-25T11:59:57.520Z,99529.75
2022-08-25T12:02:51.180Z,99526.53
2022-08-25T12:05:24.180Z,99525.47
2022-08-25T12:08:12.274Z,99515.44
2022-08-25T12:11:10.643Z,99512.94
2022-08-25T12:14:22.983Z,99509.91
2022-08-25T12:16:56.702Z,99505.44
2022-08-25T12:19:35.546Z,99503.44
2022-08-25T12:22:03.594Z,99499.00
2022-08-25T12:24:47.863Z,99499.22
2022-08-25T12:27:37.236Z,99503.44
2022-08-25T12:30:36.790Z,99503.66
2022-08-25T12:33:09.834Z,99498.34
2022-08-25T12:35:52.802Z,99498.03
2022-08-25T12:38:51.843Z,99497.81
2022-08-25T12:41:24.430Z,99487.97
2022-08-25T12:44:08.816Z,99483.66
2022-08-25T12:46:39.448Z,99491.81
2022-08-25T12:49:15.428Z,99479.41
2022-08-25T12:51:53.717Z,99478.03
2022-08-25T12:54:47.504Z,99484.38
2022-08-25T12:57:40.467Z,99494.69
2022-08-25T13:00:23.213Z,99485.56
2022-08-25T13:03:56.239Z,99482.84
2022-08-25T13:07:04.740Z,99487.44
2022-08-25T13:09:31.470Z,99489.06
2022-08-25T13:12:18.555Z,99479.41
2022-08-25T13:14:57.471Z,99476.75
2022-08-25T13:17:34.651Z,99483.16
2022-08-25T13:20:29.255Z,99473.09
2022-08-25T13:23:01.091Z,99474.00
2022-08-25T13:25:33.230Z,99472.63
2022-08-25T13:28:06.043Z,99456.75
2022-08-25T13:30:37.041Z,99454.91
2022-08-25T13:33:20.524Z,99462.34
2022-08-25T13:36:11.929Z,99456.03
2022-08-25T13:38:39.748Z,99460.69
2022-08-25T13:41:09.709Z,99450.72
2022-08-25T13:43:39.375Z,99449.44
2022-08-25T13:46:07.938Z,99450.28
2022-08-25T13:48:49.518Z,99448.31
2022-08-25T13:51:31.882Z,99438.91
2022-08-25T13:54:03.247Z,99430.81
2022-08-25T13:56:41.204Z,99443.34
2022-08-25T13:59:40.030Z,99440.88
2022-08-25T14:02:15.253Z,99438.69
2022-08-25T14:04:51.280Z,99438.63
2022-08-25T14:07:22.456Z,99432.06
2022-08-25T14:10:00.013Z,99421.81
2022-08-25T14:12:45.365Z,99436.50
2022-08-25T14:15:29.377Z,99428.75
2022-08-25T14:18:10.158Z,99426.03
2022-08-25T14:20:50.652Z,99421.78
2022-08-25T14:23:27.098Z,99421.06
2022-08-25T14:25:57.660Z,99423.78
2022-08-25T14:28:31.957Z,99425.34
2022-08-25T14:31:13.488Z,99424.88
2022-08-25T14:33:53.694Z,99420.75
2022-08-25T14:36:20.743Z,99430.69
2022-08-25T14:38:54.545Z,99414.72
2022-08-25T14:41:23.987Z,99410.63
2022-08-25T14:43:51.000Z,99410.97
2022-08-25T14:46:26.626Z,99411.47
2022-08-25T14:49:01.475Z,99406.56
2022-08-25T14:51:32.926Z,99409.22
2022-08-25T14:54:04.281Z,99406.38
2022-08-25T14:56:33.117Z,99405.56
2022-08-25T14:59:01.206Z,99406.28
2022-08-25T15:01:32.900Z,99407.28
2022-08-25T15:04:13.117Z,99402.34
2022-08-25T15:06:47.372Z,99410.28
2022-08-25T15:09:17.235Z,99395.09
2022-08-25T15:11:50.591Z,99405.75
2022-08-25T15:14:29.212Z,99397.63
2022-08-25T15:17:02.182Z,99401.38
2022-08-25T15:19:35.154Z,99396.94
2022-08-25T15:22:02.017Z,99400.53
2022-08-25T15:24:28.957Z,99395.22
2022-08-25T15:27:05.647Z,99394.94
2022-08-25T15:29:40.890Z,99397.63
2022-08-25T15:32:08.886Z,99400.72
2022-08-25T15:34:36.685Z,99391.41
2022-08-25T15:37:16.567Z,99401.91
2022-08-25T15:39:47.718Z,99398.19
2022-08-25T15:42:17.805Z,99388.38
2022-08-25T15:44:53.081Z,99391.25
2022-08-25T15:47:22.527Z,99387.69
2022-08-25T15:49:50.255Z,99394.19
2022-08-25T15:52:17.937Z,99392.72
2022-08-25T15:54:45.181Z,99388.50
2022-08-25T15:57:24.354Z,99390.16
2022-08-25T15:59:52.454Z,99388.53
2022-08-25T16:02:21.500Z,99390.19
2022-08-25T16:04:48.452Z,99391.88
2022-08-25T16:07:15.207Z,99388.09
2022-08-25T16:09:42.312Z,99397.34
2022-08-25T16:12:11.127Z,99386.66
2022-08-25T16:14:40.812Z,99393.06
2022-08-25T16:17:07.684Z,99393.56
2022-08-25T16:19:35.735Z,99385.00
2022-08-25T16:22:08.917Z,99379.41
2022-08-25T16:24:44.909Z,99385.19
2022-08-25T16:27:14.093Z,99382.38
2022-08-25T16:29:50.050Z,99376.16
2022-08-25T16:32:22.402Z,99381.59
2022-08-25T16:34:49.201Z,99392.59
2022-08-25T16:37:16.148Z,99388.03
2022-08-25T16:39:47.477Z,99386.00
2022-08-25T16:42:14.418Z,99386.03
2022-08-25T16:44:41.364Z,99381.41
2022-08-25T16:47:08.832Z,99390.94
2022-08-25T16:49:36.283Z,99390.94
2022-08-25T16:52:24.861Z,99382.22
2022-08-25T16:55:15.405Z,99383.03
2022-08-25T16:57:55.842Z,99383.31
2022-08-25T17:00:28.163Z,99377.72
2022-08-25T17:03:01.604Z,99382.16
2022-08-25T17:05:29.833Z,99381.50
2022-08-25T17:08:18.813Z,99389.56
2022-08-25T17:10:46.098Z,99380.69
2022-08-25T17:13:13.903Z,99385.59
2022-08-25T17:15:47.139Z,99378.69
2022-08-25T17:18:14.942Z,99384.91
2022-08-25T17:20:45.132Z,99383.16
2022-08-25T17:23:15.181Z,99383.16
2022-08-25T17:25:45.993Z,99381.16
2022-08-25T17:28:13.200Z,99383.75
2022-08-25T17:30:41.652Z,99385.75
2022-08-25T17:33:08.673Z,99381.09
2022-08-25T17:35:51.092Z,99381.56
2022-08-25T17:38:28.415Z,99390.91
2022-08-25T17:40:59.644Z,99394.78
2022-08-25T17:43:29.023Z,99383.25
2022-08-25T17:45:59.779Z,99390.81
2022-08-25T17:48:28.958Z,99400.38
2022-08-25T17:51:01.078Z,99399.00
2022-08-25T17:53:28.584Z,99400.06
2022-08-25T17:56:02.880Z,99399.94
2022-08-25T17:58:31.906Z,99399.66
2022-08-25T18:00:59.361Z,99407.09
2022-08-25T18:03:29.389Z,99411.44
2022-08-25T18:05:58.150Z,99410.03
2022-08-25T18:08:34.842Z,99407.75
2022-08-25T18:11:04.728Z,99397.19
2022-08-25T18:13:33.139Z,99396.44
2022-08-25T18:16:00.896Z,99398.13
2022-08-25T18:18:29.966Z,99398.06
2022-08-25T18:20:57.099Z,99403.84
2022-08-25T18:23:24.166Z,99402.25
2022-08-25T18:25:51.540Z,99399.56
2022-08-25T18:28:27.963Z,99405.53
2022-08-25T18:30:55.572Z,99391.78
2022-08-25T18:33:25.988Z,99390.13
2022-08-25T18:35:58.358Z,99393.75
2022-08-25T18:38:43.913Z,99396.53
2022-08-25T18:41:13.547Z,99394.38
2022-08-25T18:43:41.191Z,99402.41
2022-08-25T18:46:08.425Z,99398.13
2022-08-25T18:48:37.434Z,99399.09
2022-08-25T18:51:10.531Z,99398.56
2022-08-25T18:53:50.236Z,99408.34
2022-08-25T18:56:19.323Z,99418.78
2022-08-25T18:58:47.956Z,99418.63
2022-08-25T19:01:17.044Z,99415.31
2022-08-25T19:03:49.502Z,99422.19
2022-08-25T19:06:34.106Z,99420.78
2022-08-25T19:09:04.100Z,99420.75
2022-08-25T19:11:31.020Z,99426.63
2022-08-25T19:14:00.342Z,99425.38
2022-08-25T19:16:38.338Z,99424.53
2022-08-25T19:19:07.649Z,99428.59
2022-08-25T19:21:35.726Z,99428.44
2022-08-25T19:24:03.414Z,99429.91
2022-08-25T19:26:37.497Z,99439.34
2022-08-25T19:29:13.357Z,99432.53
2022-08-25T19:31:47.340Z,99431.09
2022-08-25T19:34:28.031Z,99430.22
2022-08-25T19:37:06.001Z,99433.00
2022-08-25T19:39:39.224Z,99431.25
2022-08-25T19:42:37.085Z,99433.91
2022-08-25T19:45:32.311Z,99436.22
2022-08-25T19:48:01.991Z,99431.69
2022-08-25T19:50:29.588Z,99432.63
2022-08-25T19:52:58.015Z,99436.22
2022-08-25T19:55:25.190Z,99430.88
2022-08-25T19:58:03.197Z,99428.31
2022-08-25T20:00:38.705Z,99419.31
2022-08-25T20:03:09.281Z,99424.28
2022-08-25T20:05:37.598Z,99426.66
2022-08-25T20:08:05.979Z,99431.50
2022-08-25T20:10:39.420Z,99440.63
2022-08-25T20:13:09.471Z,99430.22
2022-08-25T20:15:39.787Z,99439.22
2022-08-25T20:18:07.005Z,99438.13
2022-08-25T20:20:36.555Z,99439.53
2022-08-25T20:23:22.874Z,99439.25
2022-08-25T20:25:50.231Z,99441.94
2022-08-25T20:28:18.878Z,99435.53
2022-08-25T20:30:46.133Z,99440.38
2022-08-25T20:33:13.509Z,99433.16
2022-08-25T20:35:48.587Z,99446.47
2022-08-25T20:38:15.442Z,99445.16
2022-08-25T20:40:43.459Z,99445.59
2022-08-25T20:43:12.152Z,99453.63
2022-08-25T20:45:39.676Z,99453.00
2022-08-25T20:48:07.388Z,99450.03
2022-08-25T20:50:37.646Z,99453.56
2022-08-25T20:53:05.727Z,99449.41
2022-08-25T20:55:42.381Z,99448.72
2022-08-25T20:58:09.470Z,99454.09
2022-08-25T21:00:36.407Z,99456.81
2022-08-25T21:03:03.292Z,99446.78
2022-08-25T21:05:30.253Z,99453.72
2022-08-25T21:07:58.496Z,99448.88
2022-08-25T21:10:28.293Z,99455.00
2022-08-25T21:12:55.854Z,99450.03
2022-08-25T21:15:22.856Z,99456.38
2022-08-25T21:17:54.807Z,99440.06
2022-08-25T21:20:25.287Z,99459.19
2022-08-25T21:22:53.374Z,99461.91
2022-08-25T21:25:24.678Z,99457.75
2022-08-25T21:27:51.566Z,99459.63
2022-08-25T21:30:21.029Z,99460.91
2022-08-25T21:32:52.790Z,99463.63
2022-08-25T21:35:26.854Z,99458.69
2022-08-25T21:37:53.943Z,99459.16
2022-08-25T21:40:23.154Z,99474.00
2022-08-25T21:42:54.350Z,99477.53
2022-08-25T21:45:21.850Z,99487.34
2022-08-25T21:47:54.763Z,99490.97
2022-08-25T21:50:22.253Z,99492.09
2022-08-25T21:52:54.784Z,99494.00
2022-08-25T21:55:21.947Z,99500.97
2022-08-25T21:57:49.711Z,99502.81
2022-08-25T22:00:18.802Z,99505.31
2022-08-25T22:02:51.875Z,99510.38
2022-08-25T22:05:19.278Z,99515.59
2022-08-25T22:07:47.107Z,99507.91
2022-08-25T22:10:17.931Z,99513.09
2022-08-25T22:12:51.214Z,99518.53
2022-08-25T22:15:19.259Z,99516.75
2022-08-25T22:17:48.013Z,99510.84
2022-08-25T22:20:17.713Z,99517.16
2022-08-25T22:22:44.467Z,99519.03
2022-08-25T22:25:13.053Z,99518.31
2022-08-25T22:27:43.105Z,99527.25
2022-08-25T22:30:18.981Z,99525.56
2022-08-25T22:32:45.974Z,99530.06
2022-08-25T22:35:13.031Z,99538.25
2022-08-25T22:37:40.169Z,99535.13
2022-08-25T22:40:07.959Z,99540.53
2022-08-25T22:42:35.129Z,99541.66
2022-08-25T22:45:05.686Z,99560.75
2022-08-25T22:47:34.699Z,99560.22
2022-08-25T22:50:01.847Z,99568.94
2022-08-25T22:52:33.622Z,99563.22
2022-08-25T22:55:01.677Z,99566.13
2022-08-25T22:57:31.081Z,99576.63
2022-08-25T22:59:59.318Z,99578.38
2022-08-25T23:02:30.164Z,99580.25
2022-08-25T23:04:57.832Z,99574.53
2022-08-25T23:07:28.250Z,99579.91
2022-08-25T23:09:55.158Z,99585.94
2022-08-25T23:12:26.409Z,99586.13
2022-08-25T23:14:53.386Z,99591.72
2022-08-25T23:17:20.431Z,99596.16
2022-08-25T23:19:48.123Z,99584.44
2022-08-25T23:22:18.365Z,99586.19
2022-08-25T23:24:48.754Z,99589.91
2022-08-25T23:27:19.500Z,99587.63
2022-08-25T23:29:51.857Z,99587.78
2022-08-25T23:32:20.367Z,99591.41
2022-08-25T23:34:47.373Z,99589.09
2022-08-25T23:37:16.215Z,99590.94
2022-08-25T23:39:50.009Z,99590.41
2022-08-25T23:42:19.122Z,99590.59
2022-08-25T23:44:46.665Z,99588.41
2022-08-25T23:47:16.186Z,99585.09
2022-08-25T23:49:45.874Z,99596.38
2022-08-25T23:52:12.701Z,99589.63
2022-08-25T23:54:39.495Z,99587.22
2022-08-25T23:57:06.940Z,99593.34
2022-08-25T23:59:34.157Z,99597.88
